x

Half Moon Bay - 24nm Ssw Of San Francisco, Ca (46012) Wave Buoy

2:50am - Sun 1st May 2016 All times are PDT. -7 hours from GMT.

  • Sig Wave height 8.2ft
  • Swell Direction
  • Peak Period 11s
  • Average Period 7s
  • Wind
    16mph, 20mph gusts
  • Sea Temp 50°f
  • Sea Pressure 1009.9mb
  • Half Moon Bay - 24nm Ssw Of San Francisco, Ca
  • Half Moon Bay - 24nm Ssw Of San Francisco, Ca

More Historic Weather Station data

Upgrade to MSW Pro to gain access to the past 30 days of data for over 8000 Wavebouys and Weather Stations around the globe.

Join Pro

Comparision Forecast

View Surf forecast
   
Sun 05/01 2:50am 8ft 11s 7s 16 20 mph 1009.9mb 50f
1:50am 9.5ft 10s 8s 16 18 mph 1010.3mb 50f
12:50am 8.5ft 11s 7s 16 18 mph 1011mb 50f
Sat 04/30 11:50pm 9.5ft 10s 8s 16 18 mph 1010.9mb 50f
10:50pm 9ft 10s 7s 18 22 mph 1011.1mb 50f
9:50pm 10ft 10s 7s 20 22 mph 1011.3mb 50f
8:50pm 11ft 10s 8s 20 25 mph 1011.3mb 50f
7:50pm 10.5ft 11s 7s 18 22 mph 1011.3mb 50f
6:50pm 11ft 10s 7s 18 22 mph 1011.4mb 50f
5:50pm 10ft 10s 7s 20 25 mph 1011.8mb 50f
4:50pm 9.5ft 11s 7s 20 25 mph 1011.8mb 50f
3:50pm 9ft 10s 7s 20 25 mph 1012.5mb 50f
2:50pm 9ft 9s 7s 20 25 mph 1012.9mb 50f
1:50pm 8.5ft 10s 7s 22 27 mph 1013.3mb 50f
12:50pm 9ft 9s 7s 22 27 mph 1013.6mb 50f
11:50am 9ft 10s 7s 20 22 mph 1014.2mb 50f
10:50am 8ft 9s 7s 18 22 mph 1014.3mb 50f
9:50am 9ft 9s 7s 20 22 mph 1014.2mb 50f
8:50am 9ft 10s 7s 18 22 mph 1014.8mb 50f
7:50am 9ft 9s 7s 20 25 mph 1014.7mb 50f
5:50am 10ft 9s 7s 27 31 mph 1014.3mb 50f
4:50am 11ft 8s 7s 27 31 mph 1014.5mb 50f
3:50am 12ft 10s 7s 27 34 mph 1014.4mb 50f
2:50am 12.5ft 9s 7s 29 36 mph 1014.5mb 50f
1:50am 13ft 9s 7s 31 38 mph 1014.8mb 50f
12:50am 12ft 8s 7s 34 40 mph 1014.6mb 50f
Fri 04/29 11:50pm 11ft 8s 7s 31 38 mph 1014.9mb 50f
10:50pm 11.5ft 8s 7s 34 40 mph 1015mb 51f
9:50pm 12ft 8s 7s 31 40 mph 1014.8mb 51f
8:50pm 11ft 9s 7s 34 40 mph 1014.5mb 51f
7:50pm 10.5ft 8s 7s 27 34 mph 1015.6mb 51f
6:50pm 10.5ft 8s 7s 27 31 mph 1016.1mb 51f
5:50pm 10.5ft 9s 7s 27 36 mph 1016.3mb 51f
4:50pm 10.5ft 8s 7s 25 29 mph 1016.9mb 51f
3:50pm 10.5ft 8s 7s 27 34 mph 1017.2mb 51f
2:50pm 10.5ft 9s 7s 25 29 mph 1018.1mb 51f
1:50pm 9.5ft 12s 7s 20 25 mph 1018.8mb 51f
12:50pm 11ft 13s 7s 22 27 mph 1018.9mb 51f
11:50am 10.5ft 14s 7s 18 22 mph 1019.6mb 50f
10:50am 11ft 13s 8s 20 25 mph 1019.5mb 50f
9:50am 11.5ft 14s 8s 18 22 mph 1019.2mb 50f
8:50am 11.5ft 14s 7s 20 25 mph 1018.6mb 50f
7:50am 12ft 14s 8s 18 22 mph 1017.8mb 50f
6:50am 13ft 9s 8s 20 22 mph 1017mb 50f
5:50am 13ft 10s 8s 20 27 mph 1016.8mb 50f
4:50am 12.5ft 14s 8s 22 27 mph 1017.2mb 50f
3:50am 11.5ft 10s 8s 22 27 mph 1017.3mb 50f
2:50am 12ft 14s 8s 25 29 mph 1016.7mb 50f
1:50am 14ft 10s 8s 22 29 mph 1016.4mb 50f
12:50am 14.5ft 10s 8s 22 29 mph 1016.5mb 50f
Thu 04/28 11:50pm 13.5ft 9s 8s 22 29 mph 1016.7mb 50f
10:50pm 13.5ft 10s 8s 22 27 mph 1016.2mb 51f
9:50pm 12ft 15s 7s 29 34 mph 1015.7mb 51f
8:50pm 13ft 9s 8s 29 34 mph 1014.9mb 51f
7:50pm 12.5ft 14s 7s 31 38 mph 1014.4mb 51f
6:50pm 14ft 15s 8s 25 31 mph 1014.9mb 51f
5:50pm 14ft 15s 8s 27 36 mph 1014.8mb 51f
4:50pm 12ft 9s 7s 25 31 mph 1014.9mb 51f
3:50pm 12.5ft 16s 8s 25 31 mph 1015mb 51f
2:50pm 13ft 15s 8s 25 31 mph 1015.3mb 51f
1:50pm 12ft 16s 8s 25 29 mph 1015mb 51f
12:50pm 12ft 10s 8s 25 31 mph 1015.1mb 52f
11:50am 11ft 9s 7s 25 31 mph 1015.1mb 52f
10:50am 11ft 10s 7s 22 29 mph 1015mb 52f
9:50am 12ft 9s 7s 27 31 mph 1014.4mb 52f
8:50am 11.5ft 9s 7s 25 31 mph 1014.4mb 52f
7:50am 12ft 10s 7s 25 31 mph 1014mb 52f
6:50am 11.5ft 10s 7s 25 31 mph 1013.4mb 52f
5:50am 11.5ft 9s 7s 27 34 mph 1012.9mb 52f
4:50am 13ft 10s 7s 29 36 mph 1012.4mb 52f
3:50am 14ft 10s 7s 29 36 mph 1012.3mb 52f
2:50am 12.5ft 9s 7s 27 38 mph 1012.6mb 52f
1:50am 12.5ft 9s 7s 29 34 mph 1013mb 52f
12:50am 12.5ft 9s 7s 31 36 mph 1013mb 52f
Wed 04/27 11:50pm 13.5ft 9s 7s 31 36 mph 1013.1mb 52f
10:50pm 12ft 9s 7s 29 38 mph 1013.4mb 52f
9:50pm 12.5ft 9s 7s 31 38 mph 1013.4mb 52f
8:50pm 11.5ft 9s 7s 29 36 mph 1013.3mb 52f
7:50pm 12ft 8s 7s 29 36 mph 1013.3mb 52f
6:50pm 11ft 8s 7s 31 38 mph 1012.8mb 52f
5:50pm 9.5ft 8s 6s 29 36 mph 1013.1mb 52f
4:50pm 9ft 7s 6s 29 34 mph 1013.7mb 52f
3:50pm 8ft 7s 6s 27 31 mph 1014.3mb 52f
2:50pm 6.5ft 7s 5s 27 34 mph 1014.8mb 52f
1:50pm 5ft 11s 5s 25 29 mph 1015.3mb 52f
12:50pm 5ft 11s 5s 20 25 mph 1016mb 52f
11:50am 4.5ft 10s 5s 20 25 mph 1016.1mb 52f